sensor_id;sensor_type;location;lat;lon;timestamp;P1;durP1;ratioP1;P2;durP2;ratioP2
18387;SDS011;9320;50.256;19.026;2022-07-25T00:01:19;6.63;;;3.60;;
18387;SDS011;9320;50.256;19.026;2022-07-25T00:03:48;8.18;;;3.72;;
18387;SDS011;9320;50.256;19.026;2022-07-25T00:06:18;6.60;;;3.50;;
18387;SDS011;9320;50.256;19.026;2022-07-25T00:08:46;7.50;;;3.70;;
18387;SDS011;9320;50.256;19.026;2022-07-25T00:11:15;6.28;;;3.90;;
18387;SDS011;9320;50.256;19.026;2022-07-25T00:13:43;6.22;;;3.47;;
18387;SDS011;9320;50.256;19.026;2022-07-25T00:16:11;8.80;;;3.55;;
18387;SDS011;9320;50.256;19.026;2022-07-25T00:18:40;8.70;;;3.42;;
18387;SDS011;9320;50.256;19.026;2022-07-25T00:21:08;9.32;;;3.60;;
18387;SDS011;9320;50.256;19.026;2022-07-25T00:23:38;7.40;;;4.00;;
18387;SDS011;9320;50.256;19.026;2022-07-25T00:26:06;9.45;;;4.15;;
18387;SDS011;9320;50.256;19.026;2022-07-25T00:28:34;8.80;;;4.07;;
18387;SDS011;9320;50.256;19.026;2022-07-25T00:31:03;7.93;;;4.22;;
18387;SDS011;9320;50.256;19.026;2022-07-25T00:33:31;7.55;;;3.42;;
18387;SDS011;9320;50.256;19.026;2022-07-25T00:35:59;6.68;;;3.72;;
18387;SDS011;9320;50.256;19.026;2022-07-25T00:38:28;8.68;;;3.83;;
18387;SDS011;9320;50.256;19.026;2022-07-25T00:40:57;6.82;;;4.03;;
18387;SDS011;9320;50.256;19.026;2022-07-25T00:43:25;5.75;;;4.00;;
18387;SDS011;9320;50.256;19.026;2022-07-25T00:45:53;8.38;;;3.95;;
18387;SDS011;9320;50.256;19.026;2022-07-25T00:48:24;7.95;;;4.20;;
18387;SDS011;9320;50.256;19.026;2022-07-25T00:50:54;5.40;;;3.78;;
18387;SDS011;9320;50.256;19.026;2022-07-25T00:53:22;6.63;;;3.80;;
18387;SDS011;9320;50.256;19.026;2022-07-25T00:55:51;7.75;;;4.43;;
18387;SDS011;9320;50.256;19.026;2022-07-25T00:58:22;7.05;;;3.75;;
18387;SDS011;9320;50.256;19.026;2022-07-25T01:00:50;8.30;;;4.15;;
18387;SDS011;9320;50.256;19.026;2022-07-25T01:03:18;11.98;;;4.05;;
18387;SDS011;9320;50.256;19.026;2022-07-25T01:05:46;7.60;;;4.10;;
18387;SDS011;9320;50.256;19.026;2022-07-25T01:08:19;10.43;;;4.40;;
18387;SDS011;9320;50.256;19.026;2022-07-25T01:10:48;7.32;;;4.10;;
18387;SDS011;9320;50.256;19.026;2022-07-25T01:13:16;8.52;;;4.15;;
18387;SDS011;9320;50.256;19.026;2022-07-25T01:15:47;10.65;;;4.05;;
18387;SDS011;9320;50.256;19.026;2022-07-25T01:18:15;8.02;;;3.90;;
18387;SDS011;9320;50.256;19.026;2022-07-25T01:20:45;7.15;;;3.70;;
18387;SDS011;9320;50.256;19.026;2022-07-25T01:23:14;5.40;;;3.33;;
18387;SDS011;9320;50.256;19.026;2022-07-25T01:25:42;6.53;;;3.92;;
18387;SDS011;9320;50.256;19.026;2022-07-25T01:28:11;7.57;;;3.85;;
18387;SDS011;9320;50.256;19.026;2022-07-25T01:30:39;9.63;;;3.95;;
18387;SDS011;9320;50.256;19.026;2022-07-25T01:33:07;8.23;;;4.50;;
18387;SDS011;9320;50.256;19.026;2022-07-25T01:35:36;8.32;;;4.53;;
18387;SDS011;9320;50.256;19.026;2022-07-25T01:38:10;8.48;;;4.07;;
18387;SDS011;9320;50.256;19.026;2022-07-25T01:40:38;8.90;;;4.43;;
18387;SDS011;9320;50.256;19.026;2022-07-25T01:43:07;9.25;;;4.68;;
18387;SDS011;9320;50.256;19.026;2022-07-25T01:45:36;13.20;;;4.97;;
18387;SDS011;9320;50.256;19.026;2022-07-25T01:48:04;8.82;;;4.57;;
18387;SDS011;9320;50.256;19.026;2022-07-25T01:50:33;7.55;;;4.30;;
18387;SDS011;9320;50.256;19.026;2022-07-25T01:53:01;8.73;;;4.65;;
18387;SDS011;9320;50.256;19.026;2022-07-25T01:55:31;9.20;;;5.03;;
18387;SDS011;9320;50.256;19.026;2022-07-25T01:57:59;9.02;;;4.80;;
18387;SDS011;9320;50.256;19.026;2022-07-25T02:00:28;9.27;;;4.88;;
18387;SDS011;9320;50.256;19.026;2022-07-25T02:02:56;8.73;;;4.70;;
18387;SDS011;9320;50.256;19.026;2022-07-25T02:05:42;9.32;;;5.07;;
18387;SDS011;9320;50.256;19.026;2022-07-25T02:08:10;10.05;;;5.40;;
18387;SDS011;9320;50.256;19.026;2022-07-25T02:10:39;9.38;;;5.30;;
18387;SDS011;9320;50.256;19.026;2022-07-25T02:13:08;8.02;;;5.18;;
18387;SDS011;9320;50.256;19.026;2022-07-25T02:15:36;11.07;;;5.57;;
18387;SDS011;9320;50.256;19.026;2022-07-25T02:18:04;7.95;;;5.40;;
18387;SDS011;9320;50.256;19.026;2022-07-25T02:20:32;8.43;;;5.70;;
18387;SDS011;9320;50.256;19.026;2022-07-25T02:23:01;10.50;;;5.88;;
18387;SDS011;9320;50.256;19.026;2022-07-25T02:25:30;7.25;;;4.82;;
18387;SDS011;9320;50.256;19.026;2022-07-25T02:27:59;8.57;;;5.47;;
18387;SDS011;9320;50.256;19.026;2022-07-25T02:30:28;12.32;;;5.18;;
18387;SDS011;9320;50.256;19.026;2022-07-25T02:32:56;9.65;;;4.97;;
18387;SDS011;9320;50.256;19.026;2022-07-25T02:35:25;9.73;;;5.30;;
18387;SDS011;9320;50.256;19.026;2022-07-25T02:37:53;10.52;;;5.05;;
18387;SDS011;9320;50.256;19.026;2022-07-25T02:40:22;9.88;;;5.57;;
18387;SDS011;9320;50.256;19.026;2022-07-25T02:42:50;10.40;;;5.43;;
18387;SDS011;9320;50.256;19.026;2022-07-25T02:45:20;14.35;;;5.18;;
18387;SDS011;9320;50.256;19.026;2022-07-25T02:47:48;8.57;;;4.55;;
18387;SDS011;9320;50.256;19.026;2022-07-25T02:50:16;8.07;;;4.53;;
18387;SDS011;9320;50.256;19.026;2022-07-25T02:52:45;7.72;;;4.88;;
18387;SDS011;9320;50.256;19.026;2022-07-25T02:55:13;10.20;;;4.78;;
18387;SDS011;9320;50.256;19.026;2022-07-25T02:57:41;8.65;;;4.85;;
18387;SDS011;9320;50.256;19.026;2022-07-25T03:00:10;9.00;;;4.97;;
18387;SDS011;9320;50.256;19.026;2022-07-25T03:02:40;8.45;;;4.85;;
18387;SDS011;9320;50.256;19.026;2022-07-25T03:05:09;12.75;;;5.43;;
18387;SDS011;9320;50.256;19.026;2022-07-25T03:07:40;8.90;;;5.15;;
18387;SDS011;9320;50.256;19.026;2022-07-25T03:10:11;12.07;;;5.47;;
18387;SDS011;9320;50.256;19.026;2022-07-25T03:12:41;10.20;;;5.13;;
18387;SDS011;9320;50.256;19.026;2022-07-25T03:15:10;9.48;;;5.10;;
18387;SDS011;9320;50.256;19.026;2022-07-25T03:17:41;10.77;;;4.90;;
18387;SDS011;9320;50.256;19.026;2022-07-25T03:20:09;10.27;;;5.28;;
18387;SDS011;9320;50.256;19.026;2022-07-25T03:22:38;9.63;;;4.93;;
18387;SDS011;9320;50.256;19.026;2022-07-25T03:25:06;9.40;;;5.10;;
18387;SDS011;9320;50.256;19.026;2022-07-25T03:27:46;11.02;;;4.97;;
18387;SDS011;9320;50.256;19.026;2022-07-25T03:30:15;8.73;;;5.22;;
18387;SDS011;9320;50.256;19.026;2022-07-25T03:32:45;6.63;;;4.60;;
18387;SDS011;9320;50.256;19.026;2022-07-25T03:35:13;11.77;;;4.80;;
18387;SDS011;9320;50.256;19.026;2022-07-25T03:37:41;10.30;;;4.43;;
18387;SDS011;9320;50.256;19.026;2022-07-25T03:40:11;10.38;;;4.95;;
18387;SDS011;9320;50.256;19.026;2022-07-25T03:42:41;10.88;;;4.85;;
18387;SDS011;9320;50.256;19.026;2022-07-25T03:45:09;8.68;;;4.57;;
18387;SDS011;9320;50.256;19.026;2022-07-25T03:47:38;8.68;;;4.90;;
18387;SDS011;9320;50.256;19.026;2022-07-25T03:50:08;13.43;;;5.35;;
18387;SDS011;9320;50.256;19.026;2022-07-25T03:52:36;15.60;;;4.93;;
18387;SDS011;9320;50.256;19.026;2022-07-25T03:55:05;8.95;;;4.90;;
18387;SDS011;9320;50.256;19.026;2022-07-25T03:57:34;9.13;;;4.85;;
18387;SDS011;9320;50.256;19.026;2022-07-25T04:00:03;11.05;;;4.85;;
18387;SDS011;9320;50.256;19.026;2022-07-25T04:02:33;10.68;;;4.80;;
18387;SDS011;9320;50.256;19.026;2022-07-25T04:05:03;9.68;;;4.72;;
18387;SDS011;9320;50.256;19.026;2022-07-25T04:07:34;6.93;;;4.05;;
18387;SDS011;9320;50.256;19.026;2022-07-25T04:10:04;7.45;;;4.05;;
18387;SDS011;9320;50.256;19.026;2022-07-25T04:12:33;12.18;;;5.15;;
18387;SDS011;9320;50.256;19.026;2022-07-25T04:15:01;14.18;;;5.28;;
18387;SDS011;9320;50.256;19.026;2022-07-25T04:17:29;8.07;;;4.45;;
18387;SDS011;9320;50.256;19.026;2022-07-25T04:19:58;9.98;;;4.88;;
18387;SDS011;9320;50.256;19.026;2022-07-25T04:22:26;7.25;;;4.38;;
18387;SDS011;9320;50.256;19.026;2022-07-25T04:24:55;10.85;;;5.57;;
18387;SDS011;9320;50.256;19.026;2022-07-25T04:27:24;7.35;;;4.95;;
18387;SDS011;9320;50.256;19.026;2022-07-25T04:29:52;8.60;;;5.00;;
18387;SDS011;9320;50.256;19.026;2022-07-25T04:32:20;10.18;;;5.15;;
18387;SDS011;9320;50.256;19.026;2022-07-25T04:34:49;9.13;;;4.85;;
18387;SDS011;9320;50.256;19.026;2022-07-25T04:37:17;13.48;;;4.30;;
18387;SDS011;9320;50.256;19.026;2022-07-25T04:39:46;8.18;;;4.38;;
18387;SDS011;9320;50.256;19.026;2022-07-25T04:42:15;10.13;;;4.82;;
18387;SDS011;9320;50.256;19.026;2022-07-25T04:44:43;11.32;;;6.03;;
18387;SDS011;9320;50.256;19.026;2022-07-25T04:47:11;12.13;;;5.35;;
18387;SDS011;9320;50.256;19.026;2022-07-25T04:49:40;14.55;;;5.40;;
18387;SDS011;9320;50.256;19.026;2022-07-25T04:52:08;11.07;;;5.38;;
18387;SDS011;9320;50.256;19.026;2022-07-25T04:54:36;14.20;;;5.07;;
18387;SDS011;9320;50.256;19.026;2022-07-25T04:57:04;10.98;;;5.20;;
18387;SDS011;9320;50.256;19.026;2022-07-25T04:59:34;9.07;;;4.78;;
18387;SDS011;9320;50.256;19.026;2022-07-25T05:02:02;10.13;;;5.55;;
18387;SDS011;9320;50.256;19.026;2022-07-25T05:04:30;9.75;;;5.22;;
18387;SDS011;9320;50.256;19.026;2022-07-25T05:07:00;10.98;;;5.30;;
18387;SDS011;9320;50.256;19.026;2022-07-25T05:09:28;8.63;;;4.70;;
18387;SDS011;9320;50.256;19.026;2022-07-25T05:11:56;11.43;;;4.70;;
18387;SDS011;9320;50.256;19.026;2022-07-25T05:14:24;7.90;;;4.32;;
18387;SDS011;9320;50.256;19.026;2022-07-25T05:16:54;10.10;;;4.47;;
18387;SDS011;9320;50.256;19.026;2022-07-25T05:19:22;9.27;;;4.40;;
18387;SDS011;9320;50.256;19.026;2022-07-25T05:21:51;9.00;;;4.60;;
18387;SDS011;9320;50.256;19.026;2022-07-25T05:24:19;9.93;;;4.90;;
18387;SDS011;9320;50.256;19.026;2022-07-25T05:26:48;9.23;;;3.92;;
18387;SDS011;9320;50.256;19.026;2022-07-25T05:29:17;9.80;;;4.05;;
18387;SDS011;9320;50.256;19.026;2022-07-25T05:31:45;9.70;;;4.45;;
18387;SDS011;9320;50.256;19.026;2022-07-25T05:34:15;5.95;;;3.65;;
18387;SDS011;9320;50.256;19.026;2022-07-25T05:36:43;10.20;;;4.13;;
18387;SDS011;9320;50.256;19.026;2022-07-25T05:39:12;11.55;;;4.43;;
18387;SDS011;9320;50.256;19.026;2022-07-25T05:41:41;10.27;;;4.15;;
18387;SDS011;9320;50.256;19.026;2022-07-25T05:44:09;8.85;;;3.95;;
18387;SDS011;9320;50.256;19.026;2022-07-25T05:46:37;11.95;;;3.90;;
18387;SDS011;9320;50.256;19.026;2022-07-25T05:49:05;8.70;;;4.07;;
18387;SDS011;9320;50.256;19.026;2022-07-25T05:51:35;8.80;;;4.13;;
18387;SDS011;9320;50.256;19.026;2022-07-25T05:54:03;6.22;;;3.65;;
18387;SDS011;9320;50.256;19.026;2022-07-25T05:56:32;6.90;;;3.83;;
18387;SDS011;9320;50.256;19.026;2022-07-25T05:59:00;11.95;;;4.10;;
18387;SDS011;9320;50.256;19.026;2022-07-25T06:01:29;8.05;;;4.10;;
18387;SDS011;9320;50.256;19.026;2022-07-25T06:03:57;8.32;;;4.18;;
18387;SDS011;9320;50.256;19.026;2022-07-25T06:06:25;8.50;;;3.97;;
18387;SDS011;9320;50.256;19.026;2022-07-25T06:08:55;10.00;;;4.40;;
18387;SDS011;9320;50.256;19.026;2022-07-25T06:11:23;9.57;;;4.10;;
18387;SDS011;9320;50.256;19.026;2022-07-25T06:13:55;8.02;;;4.40;;
18387;SDS011;9320;50.256;19.026;2022-07-25T06:16:25;8.55;;;4.20;;
18387;SDS011;9320;50.256;19.026;2022-07-25T06:18:53;11.05;;;4.35;;
18387;SDS011;9320;50.256;19.026;2022-07-25T06:21:21;9.10;;;4.30;;
18387;SDS011;9320;50.256;19.026;2022-07-25T06:23:49;11.73;;;3.95;;
18387;SDS011;9320;50.256;19.026;2022-07-25T06:26:19;6.30;;;3.72;;
18387;SDS011;9320;50.256;19.026;2022-07-25T06:28:47;6.35;;;4.15;;
18387;SDS011;9320;50.256;19.026;2022-07-25T06:31:16;11.93;;;4.32;;
18387;SDS011;9320;50.256;19.026;2022-07-25T06:33:45;12.55;;;4.50;;
18387;SDS011;9320;50.256;19.026;2022-07-25T06:36:13;11.10;;;4.10;;
18387;SDS011;9320;50.256;19.026;2022-07-25T06:38:41;9.02;;;4.38;;
18387;SDS011;9320;50.256;19.026;2022-07-25T06:41:12;21.85;;;5.78;;
18387;SDS011;9320;50.256;19.026;2022-07-25T06:43:43;9.55;;;4.95;;
18387;SDS011;9320;50.256;19.026;2022-07-25T06:46:11;16.58;;;4.95;;
18387;SDS011;9320;50.256;19.026;2022-07-25T06:48:39;8.57;;;4.10;;
18387;SDS011;9320;50.256;19.026;2022-07-25T06:51:07;8.60;;;4.20;;
18387;SDS011;9320;50.256;19.026;2022-07-25T06:53:35;9.07;;;4.20;;
18387;SDS011;9320;50.256;19.026;2022-07-25T06:56:04;9.13;;;3.60;;
18387;SDS011;9320;50.256;19.026;2022-07-25T06:58:32;5.90;;;3.35;;
18387;SDS011;9320;50.256;19.026;2022-07-25T07:01:02;16.52;;;3.63;;
18387;SDS011;9320;50.256;19.026;2022-07-25T07:03:30;9.70;;;3.58;;
18387;SDS011;9320;50.256;19.026;2022-07-25T07:06:03;7.90;;;3.67;;
18387;SDS011;9320;50.256;19.026;2022-07-25T07:08:32;12.55;;;3.40;;
18387;SDS011;9320;50.256;19.026;2022-07-25T07:11:00;5.57;;;3.28;;
18387;SDS011;9320;50.256;19.026;2022-07-25T07:13:29;9.25;;;3.47;;
18387;SDS011;9320;50.256;19.026;2022-07-25T07:15:57;7.70;;;3.80;;
18387;SDS011;9320;50.256;19.026;2022-07-25T07:18:27;9.50;;;4.30;;
18387;SDS011;9320;50.256;19.026;2022-07-25T07:20:55;9.63;;;3.70;;
18387;SDS011;9320;50.256;19.026;2022-07-25T07:23:23;9.05;;;3.55;;
18387;SDS011;9320;50.256;19.026;2022-07-25T07:25:54;4.97;;;3.03;;
18387;SDS011;9320;50.256;19.026;2022-07-25T07:28:22;6.95;;;3.13;;
18387;SDS011;9320;50.256;19.026;2022-07-25T07:30:50;6.47;;;2.90;;
18387;SDS011;9320;50.256;19.026;2022-07-25T07:33:40;7.22;;;2.63;;
18387;SDS011;9320;50.256;19.026;2022-07-25T07:36:08;7.32;;;2.60;;
18387;SDS011;9320;50.256;19.026;2022-07-25T07:38:37;5.95;;;2.83;;
18387;SDS011;9320;50.256;19.026;2022-07-25T07:41:05;8.48;;;2.53;;
18387;SDS011;9320;50.256;19.026;2022-07-25T07:43:34;5.55;;;2.58;;
18387;SDS011;9320;50.256;19.026;2022-07-25T07:46:02;5.90;;;2.35;;
18387;SDS011;9320;50.256;19.026;2022-07-25T07:48:30;7.97;;;2.65;;
18387;SDS011;9320;50.256;19.026;2022-07-25T07:51:01;8.45;;;2.50;;
18387;SDS011;9320;50.256;19.026;2022-07-25T07:53:30;10.13;;;2.75;;
18387;SDS011;9320;50.256;19.026;2022-07-25T07:56:16;5.75;;;2.40;;
18387;SDS011;9320;50.256;19.026;2022-07-25T07:58:45;9.57;;;2.45;;
18387;SDS011;9320;50.256;19.026;2022-07-25T08:01:13;7.68;;;2.53;;
18387;SDS011;9320;50.256;19.026;2022-07-25T08:03:41;5.32;;;1.90;;
18387;SDS011;9320;50.256;19.026;2022-07-25T08:06:11;7.03;;;3.00;;
18387;SDS011;9320;50.256;19.026;2022-07-25T08:08:39;7.20;;;3.47;;
18387;SDS011;9320;50.256;19.026;2022-07-25T08:11:07;8.07;;;2.88;;
18387;SDS011;9320;50.256;19.026;2022-07-25T08:13:36;3.60;;;1.90;;
18387;SDS011;9320;50.256;19.026;2022-07-25T08:16:04;3.33;;;2.10;;
18387;SDS011;9320;50.256;19.026;2022-07-25T08:18:33;3.17;;;1.90;;
18387;SDS011;9320;50.256;19.026;2022-07-25T08:21:01;4.13;;;2.05;;
18387;SDS011;9320;50.256;19.026;2022-07-25T08:33:32;4.07;;;2.00;;
18387;SDS011;9320;50.256;19.026;2022-07-25T08:36:00;3.65;;;2.00;;
18387;SDS011;9320;50.256;19.026;2022-07-25T08:38:28;2.63;;;1.85;;
18387;SDS011;9320;50.256;19.026;2022-07-25T08:40:57;7.38;;;2.30;;
18387;SDS011;9320;50.256;19.026;2022-07-25T08:43:28;3.10;;;2.00;;
18387;SDS011;9320;50.256;19.026;2022-07-25T08:45:59;5.25;;;2.20;;
18387;SDS011;9320;50.256;19.026;2022-07-25T08:48:28;2.85;;;2.08;;
18387;SDS011;9320;50.256;19.026;2022-07-25T08:50:58;5.80;;;2.05;;
18387;SDS011;9320;50.256;19.026;2022-07-25T08:53:26;3.58;;;2.08;;
18387;SDS011;9320;50.256;19.026;2022-07-25T08:55:59;3.42;;;2.10;;
18387;SDS011;9320;50.256;19.026;2022-07-25T08:58:36;12.15;;;2.90;;
18387;SDS011;9320;50.256;19.026;2022-07-25T09:01:09;6.95;;;2.35;;
18387;SDS011;9320;50.256;19.026;2022-07-25T09:03:38;10.07;;;2.40;;
18387;SDS011;9320;50.256;19.026;2022-07-25T09:06:15;3.63;;;1.98;;
18387;SDS011;9320;50.256;19.026;2022-07-25T09:08:51;3.45;;;1.98;;
18387;SDS011;9320;50.256;19.026;2022-07-25T09:11:25;6.30;;;2.10;;
18387;SDS011;9320;50.256;19.026;2022-07-25T09:14:00;6.25;;;2.08;;
18387;SDS011;9320;50.256;19.026;2022-07-25T09:16:33;4.32;;;2.35;;
18387;SDS011;9320;50.256;19.026;2022-07-25T09:19:09;8.35;;;2.42;;
18387;SDS011;9320;50.256;19.026;2022-07-25T09:21:41;7.95;;;2.25;;
18387;SDS011;9320;50.256;19.026;2022-07-25T09:24:11;10.85;;;2.50;;
18387;SDS011;9320;50.256;19.026;2022-07-25T09:26:45;17.23;;;3.03;;
18387;SDS011;9320;50.256;19.026;2022-07-25T09:29:15;6.15;;;2.00;;
18387;SDS011;9320;50.256;19.026;2022-07-25T09:31:45;15.73;;;2.95;;
18387;SDS011;9320;50.256;19.026;2022-07-25T09:34:15;2.70;;;1.90;;
18387;SDS011;9320;50.256;19.026;2022-07-25T09:36:53;12.20;;;2.20;;
18387;SDS011;9320;50.256;19.026;2022-07-25T09:39:31;7.82;;;2.33;;
18387;SDS011;9320;50.256;19.026;2022-07-25T09:42:01;9.88;;;2.65;;
18387;SDS011;9320;50.256;19.026;2022-07-25T09:44:29;5.22;;;1.90;;
18387;SDS011;9320;50.256;19.026;2022-07-25T09:46:57;5.10;;;1.83;;
18387;SDS011;9320;50.256;19.026;2022-07-25T09:49:37;4.22;;;1.95;;
18387;SDS011;9320;50.256;19.026;2022-07-25T09:52:09;6.68;;;2.10;;
18387;SDS011;9320;50.256;19.026;2022-07-25T09:54:38;11.07;;;2.22;;
18387;SDS011;9320;50.256;19.026;2022-07-25T09:57:06;33.00;;;4.25;;
18387;SDS011;9320;50.256;19.026;2022-07-25T09:59:34;7.80;;;2.10;;
18387;SDS011;9320;50.256;19.026;2022-07-25T10:02:05;5.07;;;2.10;;
18387;SDS011;9320;50.256;19.026;2022-07-25T10:04:40;10.77;;;3.50;;
18387;SDS011;9320;50.256;19.026;2022-07-25T10:07:14;3.80;;;1.55;;
18387;SDS011;9320;50.256;19.026;2022-07-25T10:09:46;3.92;;;1.80;;
18387;SDS011;9320;50.256;19.026;2022-07-25T10:12:17;12.55;;;2.00;;
18387;SDS011;9320;50.256;19.026;2022-07-25T10:15:03;15.10;;;2.50;;
18387;SDS011;9320;50.256;19.026;2022-07-25T10:17:34;15.80;;;2.60;;
18387;SDS011;9320;50.256;19.026;2022-07-25T10:20:04;47.03;;;6.40;;
18387;SDS011;9320;50.256;19.026;2022-07-25T10:22:40;9.48;;;2.13;;
18387;SDS011;9320;50.256;19.026;2022-07-25T10:25:22;10.45;;;2.15;;
18387;SDS011;9320;50.256;19.026;2022-07-25T10:27:51;34.70;;;4.07;;
18387;SDS011;9320;50.256;19.026;2022-07-25T10:30:32;12.45;;;2.08;;
18387;SDS011;9320;50.256;19.026;2022-07-25T10:33:02;13.05;;;2.05;;
18387;SDS011;9320;50.256;19.026;2022-07-25T10:35:37;37.78;;;5.30;;
18387;SDS011;9320;50.256;19.026;2022-07-25T10:38:07;123.75;;;12.50;;
18387;SDS011;9320;50.256;19.026;2022-07-25T10:40:36;27.92;;;4.15;;
18387;SDS011;9320;50.256;19.026;2022-07-25T10:43:06;5.65;;;1.70;;
18387;SDS011;9320;50.256;19.026;2022-07-25T10:45:36;10.60;;;2.38;;
18387;SDS011;9320;50.256;19.026;2022-07-25T10:48:07;48.83;;;6.80;;
18387;SDS011;9320;50.256;19.026;2022-07-25T10:50:45;53.15;;;7.38;;
18387;SDS011;9320;50.256;19.026;2022-07-25T10:53:34;62.83;;;8.30;;
18387;SDS011;9320;50.256;19.026;2022-07-25T10:56:07;33.35;;;5.93;;
18387;SDS011;9320;50.256;19.026;2022-07-25T10:58:43;57.13;;;7.00;;
18387;SDS011;9320;50.256;19.026;2022-07-25T11:01:14;57.90;;;7.40;;
18387;SDS011;9320;50.256;19.026;2022-07-25T11:03:47;65.82;;;6.70;;
18387;SDS011;9320;50.256;19.026;2022-07-25T11:06:15;29.35;;;3.97;;
18387;SDS011;9320;50.256;19.026;2022-07-25T11:08:56;18.90;;;3.10;;
18387;SDS011;9320;50.256;19.026;2022-07-25T11:11:33;10.45;;;2.20;;
18387;SDS011;9320;50.256;19.026;2022-07-25T11:14:03;16.42;;;2.45;;
18387;SDS011;9320;50.256;19.026;2022-07-25T11:16:32;12.40;;;1.88;;
18387;SDS011;9320;50.256;19.026;2022-07-25T11:19:00;20.05;;;2.50;;
18387;SDS011;9320;50.256;19.026;2022-07-25T11:21:28;60.65;;;6.15;;
18387;SDS011;9320;50.256;19.026;2022-07-25T11:23:58;1.77;;;1.50;;
18387;SDS011;9320;50.256;19.026;2022-07-25T11:26:26;2.47;;;1.55;;
18387;SDS011;9320;50.256;19.026;2022-07-25T11:28:54;2.40;;;1.75;;
18387;SDS011;9320;50.256;19.026;2022-07-25T11:31:22;21.08;;;2.58;;
18387;SDS011;9320;50.256;19.026;2022-07-25T11:33:51;7.05;;;1.85;;
18387;SDS011;9320;50.256;19.026;2022-07-25T11:36:19;6.53;;;1.60;;
18387;SDS011;9320;50.256;19.026;2022-07-25T11:38:48;13.70;;;3.53;;
18387;SDS011;9320;50.256;19.026;2022-07-25T11:41:27;6.80;;;2.38;;
18387;SDS011;9320;50.256;19.026;2022-07-25T11:43:56;3.20;;;1.98;;
18387;SDS011;9320;50.256;19.026;2022-07-25T11:46:24;2.83;;;1.70;;
18387;SDS011;9320;50.256;19.026;2022-07-25T11:49:01;7.43;;;1.80;;
18387;SDS011;9320;50.256;19.026;2022-07-25T11:51:35;5.90;;;1.90;;
18387;SDS011;9320;50.256;19.026;2022-07-25T11:54:07;7.68;;;1.90;;
18387;SDS011;9320;50.256;19.026;2022-07-25T11:56:39;15.23;;;2.22;;
18387;SDS011;9320;50.256;19.026;2022-07-25T11:59:09;4.28;;;1.80;;
18387;SDS011;9320;50.256;19.026;2022-07-25T12:01:38;2.67;;;1.70;;
18387;SDS011;9320;50.256;19.026;2022-07-25T12:04:08;4.07;;;1.90;;
18387;SDS011;9320;50.256;19.026;2022-07-25T12:06:38;8.93;;;2.00;;
18387;SDS011;9320;50.256;19.026;2022-07-25T12:09:10;8.95;;;2.20;;
18387;SDS011;9320;50.256;19.026;2022-07-25T12:11:46;6.68;;;2.17;;
18387;SDS011;9320;50.256;19.026;2022-07-25T12:14:15;6.05;;;1.80;;
18387;SDS011;9320;50.256;19.026;2022-07-25T12:16:43;30.25;;;4.03;;
18387;SDS011;9320;50.256;19.026;2022-07-25T12:19:18;37.90;;;4.10;;
18387;SDS011;9320;50.256;19.026;2022-07-25T12:21:48;20.30;;;2.78;;
18387;SDS011;9320;50.256;19.026;2022-07-25T12:24:16;11.23;;;2.10;;
18387;SDS011;9320;50.256;19.026;2022-07-25T12:26:45;6.43;;;2.08;;
18387;SDS011;9320;50.256;19.026;2022-07-25T12:29:14;2.58;;;1.75;;
18387;SDS011;9320;50.256;19.026;2022-07-25T12:31:42;4.30;;;1.75;;
18387;SDS011;9320;50.256;19.026;2022-07-25T12:34:11;21.15;;;2.67;;
18387;SDS011;9320;50.256;19.026;2022-07-25T12:36:39;16.30;;;2.65;;
18387;SDS011;9320;50.256;19.026;2022-07-25T12:39:10;8.07;;;2.50;;
18387;SDS011;9320;50.256;19.026;2022-07-25T12:41:38;9.48;;;2.20;;
18387;SDS011;9320;50.256;19.026;2022-07-25T12:44:09;15.82;;;3.15;;
18387;SDS011;9320;50.256;19.026;2022-07-25T12:46:38;3.90;;;1.92;;
18387;SDS011;9320;50.256;19.026;2022-07-25T12:49:14;5.32;;;1.90;;
18387;SDS011;9320;50.256;19.026;2022-07-25T12:51:43;39.65;;;4.70;;
18387;SDS011;9320;50.256;19.026;2022-07-25T12:54:11;6.40;;;1.98;;
18387;SDS011;9320;50.256;19.026;2022-07-25T12:56:47;12.98;;;3.33;;
18387;SDS011;9320;50.256;19.026;2022-07-25T12:59:17;6.97;;;2.22;;
18387;SDS011;9320;50.256;19.026;2022-07-25T13:01:45;7.93;;;2.38;;
18387;SDS011;9320;50.256;19.026;2022-07-25T13:04:14;4.68;;;1.95;;
18387;SDS011;9320;50.256;19.026;2022-07-25T13:06:42;7.78;;;2.60;;
18387;SDS011;9320;50.256;19.026;2022-07-25T13:09:11;5.50;;;2.50;;
18387;SDS011;9320;50.256;19.026;2022-07-25T13:11:39;3.60;;;1.75;;
18387;SDS011;9320;50.256;19.026;2022-07-25T13:14:07;5.03;;;1.95;;
18387;SDS011;9320;50.256;19.026;2022-07-25T13:16:37;6.40;;;2.20;;
18387;SDS011;9320;50.256;19.026;2022-07-25T13:19:05;3.35;;;1.80;;
18387;SDS011;9320;50.256;19.026;2022-07-25T13:21:34;4.05;;;1.88;;
18387;SDS011;9320;50.256;19.026;2022-07-25T13:24:03;18.30;;;4.53;;
18387;SDS011;9320;50.256;19.026;2022-07-25T13:26:33;22.08;;;3.15;;
18387;SDS011;9320;50.256;19.026;2022-07-25T13:29:02;7.30;;;2.25;;
18387;SDS011;9320;50.256;19.026;2022-07-25T13:31:35;6.03;;;1.90;;
18387;SDS011;9320;50.256;19.026;2022-07-25T13:34:06;15.27;;;3.25;;
18387;SDS011;9320;50.256;19.026;2022-07-25T13:36:35;7.53;;;2.00;;
18387;SDS011;9320;50.256;19.026;2022-07-25T13:39:05;9.25;;;2.33;;
18387;SDS011;9320;50.256;19.026;2022-07-25T13:41:34;11.52;;;2.13;;
18387;SDS011;9320;50.256;19.026;2022-07-25T13:44:02;2.53;;;1.75;;
18387;SDS011;9320;50.256;19.026;2022-07-25T13:46:31;4.88;;;1.92;;
18387;SDS011;9320;50.256;19.026;2022-07-25T13:49:00;7.30;;;2.80;;
18387;SDS011;9320;50.256;19.026;2022-07-25T13:51:29;4.82;;;2.10;;
18387;SDS011;9320;50.256;19.026;2022-07-25T13:53:57;3.67;;;1.80;;
18387;SDS011;9320;50.256;19.026;2022-07-25T13:56:25;7.00;;;2.03;;
18387;SDS011;9320;50.256;19.026;2022-07-25T13:58:54;4.75;;;1.80;;
18387;SDS011;9320;50.256;19.026;2022-07-25T14:01:22;13.27;;;2.83;;
18387;SDS011;9320;50.256;19.026;2022-07-25T14:03:52;9.50;;;2.60;;
18387;SDS011;9320;50.256;19.026;2022-07-25T14:06:22;2.90;;;1.60;;
18387;SDS011;9320;50.256;19.026;2022-07-25T14:08:50;5.28;;;1.85;;
18387;SDS011;9320;50.256;19.026;2022-07-25T14:11:18;15.82;;;3.78;;
18387;SDS011;9320;50.256;19.026;2022-07-25T14:13:50;5.00;;;1.73;;
18387;SDS011;9320;50.256;19.026;2022-07-25T14:16:18;26.75;;;3.33;;
18387;SDS011;9320;50.256;19.026;2022-07-25T14:18:46;3.92;;;1.85;;
18387;SDS011;9320;50.256;19.026;2022-07-25T14:21:14;32.38;;;4.10;;
18387;SDS011;9320;50.256;19.026;2022-07-25T14:23:44;5.95;;;1.98;;
18387;SDS011;9320;50.256;19.026;2022-07-25T14:26:12;30.17;;;4.38;;
18387;SDS011;9320;50.256;19.026;2022-07-25T14:28:40;11.80;;;1.95;;
18387;SDS011;9320;50.256;19.026;2022-07-25T14:31:08;6.60;;;2.22;;
18387;SDS011;9320;50.256;19.026;2022-07-25T14:33:37;15.63;;;2.97;;
18387;SDS011;9320;50.256;19.026;2022-07-25T14:36:06;13.75;;;2.42;;
18387;SDS011;9320;50.256;19.026;2022-07-25T14:38:35;3.78;;;1.90;;
18387;SDS011;9320;50.256;19.026;2022-07-25T14:41:05;5.10;;;2.00;;
18387;SDS011;9320;50.256;19.026;2022-07-25T14:43:38;3.20;;;1.80;;
18387;SDS011;9320;50.256;19.026;2022-07-25T14:46:06;2.45;;;1.70;;
18387;SDS011;9320;50.256;19.026;2022-07-25T14:48:35;4.28;;;1.85;;
18387;SDS011;9320;50.256;19.026;2022-07-25T14:51:04;5.03;;;1.90;;
18387;SDS011;9320;50.256;19.026;2022-07-25T14:53:33;4.40;;;1.80;;
18387;SDS011;9320;50.256;19.026;2022-07-25T14:56:02;3.22;;;1.98;;
18387;SDS011;9320;50.256;19.026;2022-07-25T14:58:33;2.85;;;1.63;;
18387;SDS011;9320;50.256;19.026;2022-07-25T15:01:03;2.70;;;1.50;;
18387;SDS011;9320;50.256;19.026;2022-07-25T15:03:31;3.00;;;1.60;;
18387;SDS011;9320;50.256;19.026;2022-07-25T15:06:00;2.55;;;1.50;;
18387;SDS011;9320;50.256;19.026;2022-07-25T15:08:28;2.35;;;1.60;;